Time;durP1;ratioP1;P1;durP2;ratioP2;P2;SDS_P1;SDS_P2;PMS_P1;PMS_P2;Temp;Humidity;BMP_temperature;BMP_pressure;BME280_temperature;BME280_humidity;BME280_pressure;Samples;Min_cycle;Max_cycle;Signal;HPM_P1;HPM_P2
2023/04/16 00:01:43;;;;;;;6.32;3.87;;;14.20;68.70;;;;;;2433756;56;21995;-84
2023/04/16 00:04:09;;;;;;;5.18;3.58;;;14.20;68.60;;;;;;2217157;56;20955;-84
2023/04/16 00:06:36;;;;;;;6.62;3.78;;;14.20;68.60;;;;;;2216644;56;21049;-83
2023/04/16 00:09:03;;;;;;;6.22;4.25;;;14.20;68.50;;;;;;2433980;56;21019;-86
2023/04/16 00:11:29;;;;;;;6.85;4.97;;;14.20;68.60;;;;;;2433875;56;20986;-85
2023/04/16 00:13:56;;;;;;;7.80;5.40;;;14.20;68.70;;;;;;2217415;56;21023;-84
2023/04/16 00:16:22;;;;;;;6.35;4.78;;;14.20;68.70;;;;;;2433853;56;21053;-83
2023/04/16 00:18:48;;;;;;;7.80;5.55;;;14.20;68.70;;;;;;2217042;56;21064;-83
2023/04/16 00:21:14;;;;;;;8.27;5.95;;;14.20;68.80;;;;;;2433436;56;20995;-83
2023/04/16 00:23:41;;;;;;;7.90;5.93;;;14.20;68.90;;;;;;2433873;56;21000;-85
2023/04/16 00:26:07;;;;;;;8.90;6.22;;;14.20;68.90;;;;;;2433587;56;21003;-86
2023/04/16 00:28:34;;;;;;;9.88;6.60;;;14.20;68.90;;;;;;2217185;56;21027;-84
2023/04/16 00:31:00;;;;;;;7.55;5.65;;;14.20;69.00;;;;;;2434614;56;21060;-83
2023/04/16 00:33:29;;;;;;;6.93;4.75;;;14.20;69.00;;;;;;2433611;56;21069;-84
2023/04/16 00:35:56;;;;;;;7.28;5.72;;;14.20;68.90;;;;;;2214526;56;20951;-83
2023/04/16 00:38:22;;;;;;;7.20;5.28;;;14.20;69.10;;;;;;2433160;56;20971;-84
2023/04/16 00:40:48;;;;;;;8.10;5.60;;;14.20;69.10;;;;;;2216992;56;21054;-84
2023/04/16 00:43:21;;;;;;;8.27;6.40;;;14.20;69.10;;;;;;2216461;56;21611;-84
2023/04/16 00:45:48;;;;;;;8.82;6.15;;;14.30;69.10;;;;;;2217536;56;20939;-84
2023/04/16 00:48:14;;;;;;;8.50;6.18;;;14.30;69.30;;;;;;2217733;56;20971;-83
2023/04/16 00:50:40;;;;;;;7.45;5.40;;;14.30;69.30;;;;;;2435262;56;20970;-84
2023/04/16 00:53:06;;;;;;;7.70;5.43;;;14.30;69.30;;;;;;2437278;56;20935;-86
2023/04/16 00:55:33;;;;;;;7.80;5.10;;;14.30;69.30;;;;;;2436036;56;21008;-85
2023/04/16 00:57:59;;;;;;;7.12;5.00;;;14.30;69.30;;;;;;2434797;56;21008;-85
2023/04/16 01:00:25;;;;;;;7.03;5.00;;;14.30;69.30;;;;;;2217439;56;20959;-84
2023/04/16 01:02:53;;;;;;;7.53;5.03;;;14.30;70.00;;;;;;2217240;56;21460;-84
2023/04/16 01:05:19;;;;;;;7.50;5.32;;;14.30;69.40;;;;;;2216871;56;20955;-83
2023/04/16 01:07:45;;;;;;;7.80;5.15;;;14.30;69.50;;;;;;2433335;56;21068;-84
2023/04/16 01:10:12;;;;;;;6.70;4.93;;;14.30;69.50;;;;;;2433944;56;21695;-84
2023/04/16 01:12:38;;;;;;;7.30;4.90;;;14.30;69.60;;;;;;2433554;56;21015;-84
2023/04/16 01:15:05;;;;;;;6.47;4.57;;;14.30;69.60;;;;;;2434055;56;21914;-84
2023/04/16 01:17:31;;;;;;;6.37;4.37;;;14.30;69.50;;;;;;2432950;56;21019;-86
2023/04/16 01:20:00;;;;;;;5.90;4.00;;;14.30;69.50;;;;;;2216534;56;20975;-82
2023/04/16 01:22:27;;;;;;;6.18;4.28;;;14.40;69.50;;;;;;2433112;56;20964;-84
2023/04/16 01:24:53;;;;;;;5.57;4.00;;;14.40;69.50;;;;;;2433375;56;20923;-83
2023/04/16 01:27:20;;;;;;;7.10;4.75;;;14.40;69.50;;;;;;2432614;56;21042;-83
2023/04/16 01:29:46;;;;;;;5.68;4.20;;;14.40;69.50;;;;;;2433098;56;21032;-83
2023/04/16 01:32:12;;;;;;;6.95;4.07;;;14.40;69.50;;;;;;2433126;56;20974;-83
2023/04/16 01:34:38;;;;;;;5.60;3.78;;;14.40;69.40;;;;;;2433299;56;21007;-84
2023/04/16 01:37:04;;;;;;;5.22;3.60;;;14.40;69.40;;;;;;2432890;56;20948;-83
2023/04/16 01:39:31;;;;;;;5.20;3.47;;;14.40;69.40;;;;;;2433132;56;20971;-84
2023/04/16 01:41:57;;;;;;;5.47;3.35;;;14.40;69.30;;;;;;2216699;56;21474;-84
2023/04/16 01:44:24;;;;;;;6.12;4.07;;;14.40;69.30;;;;;;2432994;56;20967;-83
2023/04/16 01:46:50;;;;;;;6.20;4.10;;;14.40;69.20;;;;;;2432952;56;20935;-86
2023/04/16 01:49:17;;;;;;;5.50;3.65;;;14.40;69.30;;;;;;2216230;56;21007;-84
2023/04/16 01:51:43;;;;;;;5.18;3.53;;;14.40;69.20;;;;;;2433383;56;20990;-85
2023/04/16 01:54:09;;;;;;;5.45;3.33;;;14.40;69.20;;;;;;2433705;56;21592;-84
2023/04/16 01:56:36;;;;;;;5.03;3.25;;;14.40;69.20;;;;;;2432578;56;21500;-84
2023/04/16 01:59:02;;;;;;;5.05;3.10;;;14.40;69.10;;;;;;2433498;56;21023;-86
2023/04/16 02:01:30;;;;;;;6.03;3.08;;;14.30;69.10;;;;;;2432735;56;20955;-85
2023/04/16 02:03:57;;;;;;;5.12;3.33;;;14.30;69.10;;;;;;2215366;56;20988;-84
2023/04/16 02:06:23;;;;;;;4.53;3.10;;;14.30;69.10;;;;;;2432397;56;20983;-85
2023/04/16 02:08:50;;;;;;;5.40;3.45;;;14.30;69.10;;;;;;2432691;56;20971;-86
2023/04/16 02:11:16;;;;;;;5.43;3.40;;;14.30;69.20;;;;;;2215915;56;21023;-84
2023/04/16 02:13:42;;;;;;;5.62;3.90;;;14.30;69.10;;;;;;2432290;56;21327;-84
2023/04/16 02:16:09;;;;;;;4.95;3.53;;;14.30;69.20;;;;;;2215651;56;20955;-84
2023/04/16 02:18:35;;;;;;;6.50;4.35;;;14.30;69.20;;;;;;2215698;56;21542;-84
2023/04/16 02:21:01;;;;;;;7.12;5.15;;;14.30;69.30;;;;;;2215949;56;21305;-83
2023/04/16 02:23:27;;;;;;;6.97;4.37;;;14.30;69.30;;;;;;2432509;56;20955;-84
2023/04/16 02:25:54;;;;;;;5.87;4.32;;;14.30;69.20;;;;;;2216290;56;21050;-83
2023/04/16 02:28:20;;;;;;;6.07;4.40;;;14.30;69.20;;;;;;2432551;56;21957;-84
2023/04/16 02:30:46;;;;;;;5.75;4.15;;;14.30;69.20;;;;;;2216098;56;20975;-85
2023/04/16 02:33:13;;;;;;;4.78;3.22;;;14.30;69.20;;;;;;2432876;56;21871;-84
2023/04/16 02:35:39;;;;;;;5.93;3.83;;;14.30;69.30;;;;;;2215184;56;20967;-83
2023/04/16 02:38:06;;;;;;;5.93;4.25;;;14.30;69.40;;;;;;2432877;56;21535;-83
2023/04/16 02:40:32;;;;;;;7.28;4.72;;;14.30;69.50;;;;;;2432857;56;20995;-84
2023/04/16 02:42:58;;;;;;;5.87;3.80;;;14.20;69.40;;;;;;2433139;56;20967;-86
2023/04/16 02:45:24;;;;;;;6.20;3.78;;;14.30;69.50;;;;;;2432959;56;20951;-86
2023/04/16 02:47:51;;;;;;;5.25;3.85;;;14.20;69.40;;;;;;2216142;56;21031;-84
2023/04/16 02:50:17;;;;;;;5.30;3.80;;;14.20;69.50;;;;;;2433034;56;20959;-84
2023/04/16 02:52:43;;;;;;;4.87;3.28;;;14.30;69.60;;;;;;2433228;56;21496;-85
2023/04/16 02:55:10;;;;;;;5.03;3.60;;;14.20;69.50;;;;;;2433255;56;21865;-84
2023/04/16 02:57:37;;;;;;;5.65;4.10;;;14.20;69.50;;;;;;2215674;56;20987;-84
2023/04/16 03:00:03;;;;;;;5.45;3.90;;;14.30;69.60;;;;;;2433256;56;21019;-87
2023/04/16 03:02:30;;;;;;;6.35;4.40;;;14.20;69.50;;;;;;2432612;56;20979;-86
2023/04/16 03:04:56;;;;;;;6.35;4.45;;;14.20;69.50;;;;;;2433366;56;21080;-86
2023/04/16 03:07:22;;;;;;;6.03;3.65;;;14.20;69.50;;;;;;2432201;56;21891;-86
2023/04/16 03:09:49;;;;;;;5.65;3.90;;;14.20;69.40;;;;;;2432440;56;20984;-86
2023/04/16 03:12:15;;;;;;;7.12;4.30;;;14.20;69.40;;;;;;2433025;56;21474;-86
2023/04/16 03:14:41;;;;;;;5.65;4.28;;;14.20;69.50;;;;;;2432487;56;21849;-86
2023/04/16 03:17:07;;;;;;;7.00;4.20;;;14.20;69.50;;;;;;2215666;56;21022;-84
2023/04/16 03:19:34;;;;;;;6.40;4.53;;;14.20;69.60;;;;;;2215461;56;21001;-84
2023/04/16 03:22:00;;;;;;;7.72;4.72;;;14.20;69.60;;;;;;2216209;56;21027;-84
2023/04/16 03:24:27;;;;;;;8.18;5.03;;;14.20;69.60;;;;;;2432203;56;21532;-85
2023/04/16 03:26:53;;;;;;;5.20;3.80;;;14.20;69.50;;;;;;2215266;56;21463;-82
2023/04/16 03:29:19;;;;;;;5.95;4.30;;;14.20;69.60;;;;;;2433023;56;21566;-86
2023/04/16 03:31:45;;;;;;;5.62;3.70;;;14.20;69.60;;;;;;2432632;56;21059;-86
2023/04/16 03:34:11;;;;;;;5.37;3.75;;;14.20;69.70;;;;;;2215586;56;20974;-83
2023/04/16 03:36:38;;;;;;;6.22;4.65;;;14.20;69.70;;;;;;2431599;56;20963;-86
2023/04/16 03:39:04;;;;;;;6.20;3.92;;;14.20;69.70;;;;;;2216222;56;21014;-84
2023/04/16 03:41:31;;;;;;;5.10;3.55;;;14.20;69.70;;;;;;2433117;56;21963;-83
2023/04/16 03:43:57;;;;;;;5.07;3.55;;;14.20;69.60;;;;;;2433236;56;21510;-84
2023/04/16 03:46:23;;;;;;;5.03;3.53;;;14.20;69.60;;;;;;2432787;56;21035;-85
2023/04/16 03:48:50;;;;;;;5.15;3.47;;;14.20;69.60;;;;;;2432383;56;21011;-84
2023/04/16 03:51:16;;;;;;;5.68;3.90;;;14.20;69.60;;;;;;2433321;56;20960;-85
2023/04/16 03:53:42;;;;;;;6.55;4.43;;;14.20;69.60;;;;;;2432199;56;21019;-85
2023/04/16 03:56:08;;;;;;;6.12;4.18;;;14.20;69.60;;;;;;2432600;56;20907;-83
2023/04/16 03:58:35;;;;;;;5.93;4.25;;;14.20;69.50;;;;;;2432617;56;20959;-84
2023/04/16 04:01:01;;;;;;;5.72;3.78;;;14.20;69.40;;;;;;2433145;56;21003;-85
2023/04/16 04:03:27;;;;;;;5.50;3.65;;;14.20;69.50;;;;;;2432530;56;20947;-84
2023/04/16 04:05:53;;;;;;;4.75;3.40;;;14.20;69.50;;;;;;2433108;56;21007;-84
2023/04/16 04:08:20;;;;;;;5.35;3.50;;;14.20;69.50;;;;;;2432631;56;20956;-85
2023/04/16 04:10:46;;;;;;;5.57;4.03;;;14.20;69.50;;;;;;2433271;56;21018;-83
2023/04/16 04:13:12;;;;;;;5.70;4.15;;;14.20;69.50;;;;;;2432770;56;21018;-84
2023/04/16 04:15:39;;;;;;;5.82;4.10;;;14.20;70.10;;;;;;2432511;56;20959;-84
2023/04/16 04:18:05;;;;;;;5.85;3.92;;;14.20;69.40;;;;;;2433137;56;20987;-86
2023/04/16 04:20:31;;;;;;;7.15;4.70;;;14.20;69.40;;;;;;2432655;56;20979;-84
2023/04/16 04:22:58;;;;;;;7.00;4.60;;;14.10;69.30;;;;;;2215579;56;20982;-84
2023/04/16 04:25:24;;;;;;;6.53;4.68;;;14.10;69.40;;;;;;2215917;56;21648;-84
2023/04/16 04:27:50;;;;;;;6.12;4.65;;;14.10;69.40;;;;;;2432955;56;20951;-86
2023/04/16 04:30:17;;;;;;;5.55;4.05;;;14.10;69.30;;;;;;2433474;56;21023;-86
2023/04/16 04:32:43;;;;;;;5.87;3.92;;;14.10;69.30;;;;;;2215641;56;20951;-83
2023/04/16 04:35:09;;;;;;;6.45;4.43;;;14.10;69.40;;;;;;2433145;56;21877;-86
2023/04/16 04:37:36;;;;;;;5.85;4.15;;;14.10;69.40;;;;;;2431620;56;21032;-85
2023/04/16 04:40:05;;;;;;;4.65;3.25;;;14.10;69.40;;;;;;2433464;56;20955;-86
2023/04/16 04:42:32;;;;;;;5.87;4.05;;;14.10;69.50;;;;;;2432830;56;21032;-85
2023/04/16 04:44:58;;;;;;;6.15;3.80;;;14.10;69.60;;;;;;2215603;56;21539;-86
2023/04/16 04:47:25;;;;;;;5.37;3.42;;;14.10;69.60;;;;;;2215989;56;20970;-84
2023/04/16 04:49:51;;;;;;;5.80;3.80;;;14.10;69.60;;;;;;2432974;56;21011;-84
2023/04/16 04:52:19;;;;;;;5.45;2.83;;;14.00;69.50;;;;;;2433398;56;20999;-83
2023/04/16 04:54:45;;;;;;;5.28;3.65;;;14.00;69.50;;;;;;2215682;56;21579;-86
2023/04/16 04:57:11;;;;;;;6.60;4.45;;;14.00;69.50;;;;;;2432878;56;21050;-86
2023/04/16 04:59:38;;;;;;;4.53;3.10;;;14.00;69.50;;;;;;2432921;56;20944;-85
2023/04/16 05:02:04;;;;;;;4.45;3.15;;;14.00;69.50;;;;;;2433769;56;21047;-85
2023/04/16 05:04:30;;;;;;;4.87;3.42;;;14.00;69.50;;;;;;2432614;56;21316;-86
2023/04/16 05:06:57;;;;;;;5.30;3.35;;;14.00;69.50;;;;;;2433294;56;20993;-86
2023/04/16 05:09:23;;;;;;;5.32;3.35;;;14.00;69.50;;;;;;2433143;56;20943;-85
2023/04/16 05:11:50;;;;;;;4.85;3.20;;;14.00;69.50;;;;;;2433395;56;20991;-86
2023/04/16 05:14:16;;;;;;;4.82;3.30;;;14.00;69.60;;;;;;2433693;56;20963;-86
2023/04/16 05:16:42;;;;;;;4.53;3.12;;;14.00;69.50;;;;;;2215467;56;21666;-85
2023/04/16 05:19:09;;;;;;;4.32;2.97;;;14.00;69.50;;;;;;2216470;56;20955;-86
2023/04/16 05:21:35;;;;;;;5.57;3.50;;;14.00;69.60;;;;;;2432989;56;21011;-86
2023/04/16 05:24:01;;;;;;;4.25;2.78;;;14.00;69.60;;;;;;2433206;56;21055;-85
2023/04/16 05:26:27;;;;;;;4.68;2.80;;;14.00;69.60;;;;;;2215815;56;20951;-86
2023/04/16 05:28:54;;;;;;;4.20;2.90;;;14.00;69.60;;;;;;2433550;56;21456;-86
2023/04/16 05:31:20;;;;;;;3.60;2.28;;;14.00;69.60;;;;;;2215962;56;21027;-86
2023/04/16 05:33:46;;;;;;;4.72;2.75;;;14.00;69.60;;;;;;2432655;56;21026;-86
2023/04/16 05:36:13;;;;;;;5.68;3.10;;;14.00;69.50;;;;;;2434280;56;20999;-85
2023/04/16 05:38:39;;;;;;;3.53;2.50;;;14.00;69.50;;;;;;2434134;56;21022;-86
2023/04/16 05:41:05;;;;;;;3.65;2.37;;;14.00;69.50;;;;;;2436266;56;20959;-84
2023/04/16 05:43:32;;;;;;;3.85;2.53;;;14.00;69.40;;;;;;2432795;56;21406;-85
2023/04/16 05:45:58;;;;;;;4.82;3.05;;;14.00;70.20;;;;;;2433837;56;21437;-84
2023/04/16 05:48:24;;;;;;;4.45;3.03;;;14.00;69.50;;;;;;2216722;56;20939;-83
2023/04/16 05:50:50;;;;;;;4.35;2.75;;;14.00;69.50;;;;;;2433451;56;21039;-85
2023/04/16 05:53:17;;;;;;;4.40;2.85;;;14.00;69.60;;;;;;2430290;55;20994;-84
2023/04/16 05:55:44;;;;;;;3.37;2.22;;;14.00;69.50;;;;;;2433888;56;21067;-85
2023/04/16 05:58:10;;;;;;;3.25;2.12;;;14.00;69.50;;;;;;2435049;56;20995;-85
2023/04/16 06:00:36;;;;;;;4.00;2.50;;;14.00;69.50;;;;;;2217861;56;21007;-84
2023/04/16 06:03:03;;;;;;;4.50;2.58;;;14.00;69.50;;;;;;2436283;56;21756;-86
2023/04/16 06:05:29;;;;;;;3.80;2.50;;;14.00;69.40;;;;;;2437088;56;20936;-86
2023/04/16 06:07:55;;;;;;;3.67;2.33;;;14.00;69.40;;;;;;2216730;56;21002;-84
2023/04/16 06:10:22;;;;;;;4.60;2.95;;;14.00;69.40;;;;;;2433639;56;21058;-84
2023/04/16 06:12:48;;;;;;;4.22;3.05;;;14.00;69.30;;;;;;2432744;56;21019;-84
2023/04/16 06:15:14;;;;;;;4.55;2.90;;;13.90;69.30;;;;;;2432402;56;21002;-84
2023/04/16 06:17:41;;;;;;;4.35;2.83;;;13.90;69.30;;;;;;2431202;55;21008;-84
2023/04/16 06:20:07;;;;;;;3.97;2.50;;;13.90;69.40;;;;;;2213693;56;21059;-84
2023/04/16 06:22:34;;;;;;;4.70;3.42;;;13.90;69.30;;;;;;2432165;56;20995;-85
2023/04/16 06:25:00;;;;;;;4.30;2.53;;;13.90;69.20;;;;;;2215793;56;21074;-86
2023/04/16 06:27:26;;;;;;;3.50;2.40;;;13.90;69.20;;;;;;2215058;56;21908;-85
2023/04/16 06:29:52;;;;;;;3.70;2.15;;;13.90;69.20;;;;;;2432668;56;20994;-84
2023/04/16 06:32:19;;;;;;;4.37;2.70;;;13.80;69.20;;;;;;2432512;56;21014;-84
2023/04/16 06:34:45;;;;;;;4.00;2.60;;;13.80;69.20;;;;;;2217739;56;21031;-84
2023/04/16 06:37:11;;;;;;;4.20;2.65;;;13.80;69.10;;;;;;2433804;56;21483;-85
2023/04/16 06:39:38;;;;;;;4.12;2.60;;;13.80;69.00;;;;;;2216988;56;21031;-84
2023/04/16 06:42:04;;;;;;;3.92;2.50;;;13.80;68.90;;;;;;2433352;56;21047;-86
2023/04/16 06:44:30;;;;;;;4.40;2.70;;;13.80;68.80;;;;;;2433100;56;21027;-84
2023/04/16 06:46:57;;;;;;;5.03;3.28;;;13.70;68.70;;;;;;2433754;56;21778;-85
2023/04/16 06:49:23;;;;;;;4.95;3.22;;;13.70;68.70;;;;;;2433873;56;20963;-85
2023/04/16 06:51:49;;;;;;;4.65;3.37;;;13.70;68.60;;;;;;2432208;56;20923;-85
2023/04/16 06:54:15;;;;;;;4.47;3.03;;;13.70;68.40;;;;;;2433838;56;20971;-85
2023/04/16 06:56:42;;;;;;;4.90;3.37;;;13.60;68.40;;;;;;2433409;56;21027;-85
2023/04/16 06:59:08;;;;;;;4.85;3.25;;;13.50;68.30;;;;;;2433936;56;21857;-84
2023/04/16 07:01:35;;;;;;;5.07;3.40;;;13.50;68.30;;;;;;2432982;56;20975;-84
2023/04/16 07:04:02;;;;;;;4.75;3.03;;;13.50;68.40;;;;;;2433776;56;20951;-85
2023/04/16 07:06:28;;;;;;;5.12;3.42;;;13.40;68.20;;;;;;2216106;56;20951;-85
2023/04/16 07:08:55;;;;;;;4.82;3.10;;;13.40;68.40;;;;;;2433312;56;21016;-84
2023/04/16 07:11:21;;;;;;;5.35;3.25;;;13.30;68.50;;;;;;2433854;56;21782;-83
2023/04/16 07:13:47;;;;;;;4.53;3.10;;;13.30;68.70;;;;;;2215565;56;22007;-85
2023/04/16 07:16:13;;;;;;;4.93;3.28;;;13.20;68.80;;;;;;2216159;56;20982;-85
2023/04/16 07:18:40;;;;;;;5.47;3.50;;;13.20;68.90;;;;;;2433762;56;20990;-85
2023/04/16 07:21:06;;;;;;;5.05;3.28;;;13.20;68.90;;;;;;2433519;56;21405;-84
2023/04/16 07:23:32;;;;;;;5.65;3.40;;;13.20;68.90;;;;;;2432596;56;21929;-85
2023/04/16 07:25:58;;;;;;;5.20;3.47;;;13.20;69.10;;;;;;2433409;56;20948;-85
2023/04/16 07:28:25;;;;;;;4.85;3.30;;;13.20;69.10;;;;;;2215835;56;20935;-85
2023/04/16 07:30:51;;;;;;;7.50;4.78;;;13.10;68.90;;;;;;2216314;56;20979;-85
2023/04/16 07:33:17;;;;;;;5.70;3.75;;;13.10;69.10;;;;;;2216799;56;20943;-85
2023/04/16 07:35:44;;;;;;;4.97;3.17;;;13.10;69.20;;;;;;2433272;56;20939;-85
2023/04/16 07:38:10;;;;;;;6.65;4.22;;;13.10;69.40;;;;;;2434155;56;21047;-85
2023/04/16 07:40:36;;;;;;;6.47;3.12;;;13.10;69.40;;;;;;2433457;56;21047;-85
2023/04/16 07:43:03;;;;;;;5.97;3.92;;;13.20;69.50;;;;;;2433534;56;21054;-84
2023/04/16 07:45:29;;;;;;;7.25;3.65;;;13.10;69.70;;;;;;2432156;56;20970;-84
2023/04/16 07:47:55;;;;;;;4.93;3.28;;;13.10;69.70;;;;;;2216256;56;21035;-84
2023/04/16 07:50:21;;;;;;;5.47;3.55;;;13.10;69.70;;;;;;2216798;56;20935;-84
2023/04/16 07:52:48;;;;;;;6.70;3.92;;;13.10;69.70;;;;;;2432844;56;20954;-84
2023/04/16 07:55:14;;;;;;;6.25;4.10;;;13.10;69.70;;;;;;2216841;56;20983;-84
2023/04/16 07:57:40;;;;;;;5.30;3.35;;;13.10;69.80;;;;;;2432870;56;21912;-84
2023/04/16 08:00:07;;;;;;;5.45;3.37;;;13.10;69.90;;;;;;2216854;56;20947;-84
2023/04/16 08:02:34;;;;;;;6.32;4.40;;;13.10;70.00;;;;;;2216017;56;21899;-85
2023/04/16 08:05:00;;;;;;;7.68;5.40;;;13.10;70.10;;;;;;2216452;56;21487;-84
2023/04/16 08:07:26;;;;;;;9.35;5.85;;;13.10;70.00;;;;;;2433254;56;21563;-84
2023/04/16 08:09:53;;;;;;;7.32;4.75;;;13.10;70.00;;;;;;2432839;56;21011;-84
2023/04/16 08:12:19;;;;;;;7.40;5.05;;;13.10;70.00;;;;;;2433407;56;21555;-84
2023/04/16 08:14:46;;;;;;;7.78;4.97;;;13.20;70.20;;;;;;2216327;56;21015;-84
2023/04/16 08:17:12;;;;;;;6.37;4.20;;;13.20;70.20;;;;;;2216451;56;20915;-84
2023/04/16 08:19:41;;;;;;;5.80;4.28;;;13.20;70.10;;;;;;2433078;56;21436;-84
2023/04/16 08:22:07;;;;;;;6.05;4.15;;;13.20;70.10;;;;;;2216772;56;20971;-84
2023/04/16 08:24:34;;;;;;;6.78;4.62;;;13.20;70.00;;;;;;2216611;56;20959;-85
2023/04/16 08:27:00;;;;;;;6.15;4.12;;;13.20;70.00;;;;;;2431539;55;21020;-84
2023/04/16 08:29:31;;;;;;;6.57;4.47;;;13.20;70.00;;;;;;2430628;56;20983;-84
2023/04/16 08:31:58;;;;;;;6.07;4.20;;;13.20;70.00;;;;;;2433474;55;20996;-85
2023/04/16 08:34:24;;;;;;;6.05;3.67;;;13.20;70.00;;;;;;2429136;56;21803;-85
2023/04/16 08:36:51;;;;;;;6.70;4.37;;;13.20;70.20;;;;;;2432140;56;20971;-85
2023/04/16 08:39:17;;;;;;;5.90;3.70;;;13.20;70.20;;;;;;2216977;56;20976;-85
2023/04/16 08:41:44;;;;;;;6.35;3.60;;;13.20;70.30;;;;;;2434457;55;20955;-86
2023/04/16 08:44:17;;;;;;;7.82;3.45;;;13.20;70.40;;;;;;2217437;56;20975;-84
2023/04/16 08:46:43;;;;;;;5.90;3.37;;;13.20;70.40;;;;;;2433659;56;21023;-85
2023/04/16 08:49:10;;;;;;;5.32;3.60;;;13.20;70.40;;;;;;2434085;56;21003;-84
2023/04/16 08:51:39;;;;;;;5.85;3.90;;;13.30;70.40;;;;;;2216504;56;21028;-84
2023/04/16 08:54:08;;;;;;;6.35;4.10;;;13.30;70.20;;;;;;2434261;56;20983;-85
2023/04/16 08:56:35;;;;;;;6.37;4.05;;;13.30;70.30;;;;;;2433350;56;21003;-84
2023/04/16 08:59:04;;;;;;;7.00;3.67;;;13.30;70.30;;;;;;2434181;56;20987;-85
2023/04/16 09:01:33;;;;;;;8.95;5.90;;;13.30;70.20;;;;;;2217659;56;21567;-85
2023/04/16 09:04:03;;;;;;;9.85;5.45;;;13.30;70.10;;;;;;2434018;56;20984;-85
2023/04/16 09:06:30;;;;;;;6.65;4.22;;;13.30;70.10;;;;;;2433375;56;21126;-85
2023/04/16 09:08:57;;;;;;;7.55;4.18;;;13.30;70.10;;;;;;2216628;56;21012;-85
2023/04/16 09:11:23;;;;;;;6.80;4.25;;;13.30;70.10;;;;;;2217496;56;21496;-85
2023/04/16 09:13:49;;;;;;;6.28;3.97;;;13.40;70.20;;;;;;2433327;56;21390;-84
2023/04/16 09:16:15;;;;;;;5.55;3.40;;;13.40;70.30;;;;;;2433389;56;21015;-85
2023/04/16 09:18:42;;;;;;;6.00;3.62;;;13.40;70.20;;;;;;2433822;56;20983;-84
2023/04/16 09:21:11;;;;;;;5.68;3.47;;;13.40;70.40;;;;;;2216989;56;21012;-84
2023/04/16 09:23:38;;;;;;;5.60;3.67;;;13.40;70.40;;;;;;2432995;56;20939;-83
2023/04/16 09:26:05;;;;;;;6.25;3.53;;;13.40;70.50;;;;;;2433522;56;21824;-85
2023/04/16 09:28:44;;;;;;;5.87;3.42;;;13.40;70.60;;;;;;2433594;56;21066;-84
2023/04/16 09:31:14;;;;;;;6.28;3.75;;;13.50;70.50;;;;;;2216407;56;20962;-85
2023/04/16 09:33:41;;;;;;;6.22;3.50;;;13.50;70.70;;;;;;2432648;56;21030;-85
2023/04/16 09:36:07;;;;;;;6.85;4.12;;;13.50;70.60;;;;;;2432805;56;20984;-85
2023/04/16 09:38:52;;;;;;;5.50;3.35;;;13.60;70.70;;;;;;2216100;56;20999;-85
2023/04/16 09:41:19;;;;;;;5.90;3.55;;;13.60;70.20;;;;;;2433311;56;21007;-84
2023/04/16 09:44:02;;;;;;;6.00;3.72;;;13.60;70.60;;;;;;2432456;56;20943;-84
2023/04/16 09:46:33;;;;;;;6.65;4.18;;;13.60;70.40;;;;;;2432817;56;20954;-85
2023/04/16 09:49:15;;;;;;;7.15;3.75;;;13.70;70.90;;;;;;2432938;56;21086;-84
2023/04/16 09:51:42;;;;;;;6.57;3.97;;;13.70;70.70;;;;;;2431510;56;21010;-84
2023/04/16 09:54:08;;;;;;;7.37;3.90;;;13.70;71.20;;;;;;2429992;56;22081;-84
2023/04/16 09:56:45;;;;;;;7.20;4.05;;;13.80;71.30;;;;;;2432682;56;20959;-85
2023/04/16 09:59:17;;;;;;;8.40;5.37;;;13.80;71.00;;;;;;2433564;56;20951;-84
2023/04/16 10:01:45;;;;;;;7.35;4.62;;;13.90;71.10;;;;;;2336152;56;1574674;-85
2023/04/16 10:04:12;;;;;;;7.10;4.60;;;13.90;71.40;;;;;;2433742;56;20978;-85
2023/04/16 10:06:38;;;;;;;6.07;3.92;;;13.90;71.30;;;;;;2432504;56;21207;-84
2023/04/16 10:09:06;;;;;;;7.07;4.25;;;14.00;71.50;;;;;;2433463;56;20984;-86
2023/04/16 10:11:32;;;;;;;6.78;4.40;;;14.00;71.40;;;;;;2216946;56;20952;-85
2023/04/16 10:13:59;;;;;;;5.90;3.72;;;14.10;71.60;;;;;;2433172;56;20948;-86
2023/04/16 10:16:25;;;;;;;6.57;3.72;;;14.10;71.60;;;;;;2433037;56;20944;-85
2023/04/16 10:18:53;;;;;;;6.32;3.75;;;14.20;71.50;;;;;;2433321;56;20988;-85
2023/04/16 10:21:19;;;;;;;7.03;4.30;;;14.20;71.30;;;;;;2433310;56;21514;-84
2023/04/16 10:23:46;;;;;;;10.63;5.78;;;14.30;71.40;;;;;;2432812;56;22009;-85
2023/04/16 10:26:12;;;;;;;8.63;5.20;;;14.30;71.40;;;;;;2433249;56;21605;-84
2023/04/16 10:28:38;;;;;;;8.07;5.00;;;14.30;71.30;;;;;;2433309;56;21031;-84
2023/04/16 10:31:06;;;;;;;7.53;4.75;;;14.40;71.50;;;;;;2433550;56;21023;-84
2023/04/16 10:33:36;;;;;;;7.82;4.03;;;14.40;71.50;;;;;;2433306;56;20979;-85
2023/04/16 10:36:10;;;;;;;7.53;4.45;;;14.50;71.30;;;;;;2216349;56;21458;-84
2023/04/16 10:38:40;;;;;;;6.32;4.12;;;14.50;71.30;;;;;;2196254;57;20979;-85
2023/04/16 10:41:08;;;;;;;7.20;4.35;;;14.60;71.50;;;;;;2434367;56;20992;-86
2023/04/16 10:43:44;;;;;;;6.87;4.40;;;14.60;71.60;;;;;;2433328;56;20959;-85
2023/04/16 10:46:30;;;;;;;5.72;3.70;;;14.70;71.10;;;;;;2433561;56;20976;-85
2023/04/16 10:48:59;;;;;;;5.93;3.90;;;14.80;70.70;;;;;;2433625;56;20983;-84
2023/04/16 10:51:33;;;;;;;5.80;3.83;;;14.80;71.00;;;;;;2433874;56;20999;-84
2023/04/16 10:54:41;;;;;;;6.53;4.00;;;14.80;70.80;;;;;;2215324;56;21623;-85
2023/04/16 10:57:09;;;;;;;6.10;3.75;;;14.90;70.10;;;;;;2433244;56;21003;-86
2023/04/16 10:59:36;;;;;;;6.47;4.00;;;14.90;71.00;;;;;;2433877;56;21443;-85
2023/04/16 11:02:14;;;;;;;7.03;4.20;;;14.90;70.90;;;;;;2217226;56;20975;-85
2023/04/16 11:04:44;;;;;;;6.93;4.43;;;15.00;70.50;;;;;;2432958;56;20955;-85
2023/04/16 11:07:30;;;;;;;6.62;4.53;;;15.00;70.60;;;;;;2429165;56;20979;-86
2023/04/16 11:10:04;;;;;;;6.45;4.18;;;15.00;70.20;;;;;;2434672;56;20995;-85
2023/04/16 11:12:37;;;;;;;6.80;4.32;;;15.10;70.70;;;;;;2434896;56;20931;-85
2023/04/16 11:15:13;;;;;;;6.90;4.43;;;15.10;70.40;;;;;;2218396;56;20979;-85
2023/04/16 11:17:43;;;;;;;8.32;4.65;;;15.10;70.40;;;;;;2436017;56;20959;-85
2023/04/16 11:20:23;;;;;;;6.68;4.10;;;15.10;70.70;;;;;;2218129;56;21110;-85
2023/04/16 11:22:50;;;;;;;5.18;3.30;;;15.20;70.20;;;;;;2434078;56;21956;-85
2023/04/16 11:25:23;;;;;;;6.78;4.05;;;15.20;70.70;;;;;;2434127;56;21042;-84
2023/04/16 11:27:53;;;;;;;6.82;4.00;;;15.30;70.70;;;;;;2436142;56;21034;-84
2023/04/16 11:30:30;;;;;;;7.07;4.35;;;15.30;70.80;;;;;;2433592;56;21015;-85
2023/04/16 11:32:57;;;;;;;6.93;4.40;;;15.40;70.20;;;;;;2431469;56;21099;-84
2023/04/16 11:35:23;;;;;;;6.95;4.45;;;15.30;70.30;;;;;;2215256;56;21096;-85
2023/04/16 11:37:54;;;;;;;7.28;4.95;;;15.40;70.20;;;;;;2433063;56;20955;-84
2023/04/16 11:40:23;;;;;;;7.90;4.50;;;15.40;70.20;;;;;;2434916;55;21016;-84
2023/04/16 11:42:49;;;;;;;7.70;4.90;;;15.40;70.30;;;;;;2427930;56;22040;-84
2023/04/16 11:45:18;;;;;;;9.07;5.05;;;15.40;70.20;;;;;;2431180;56;21881;-84
2023/04/16 11:47:51;;;;;;;8.65;5.60;;;15.40;69.80;;;;;;2430592;56;21010;-83
2023/04/16 11:50:22;;;;;;;10.10;5.87;;;15.50;69.50;;;;;;2432900;56;21007;-84
2023/04/16 11:52:49;;;;;;;7.55;4.60;;;15.40;69.00;;;;;;2215333;56;21105;-85
2023/04/16 11:55:15;;;;;;;8.48;4.95;;;15.40;69.20;;;;;;2431525;56;22075;-85
2023/04/16 11:57:42;;;;;;;7.53;4.70;;;15.40;69.20;;;;;;2431346;56;20963;-85
2023/04/16 12:00:14;;;;;;;17.52;9.00;;;15.40;69.20;;;;;;2219785;56;21767;-86
2023/04/16 12:02:44;;;;;;;13.73;7.55;;;15.40;69.20;;;;;;2213520;56;21002;-85
2023/04/16 12:05:37;;;;;;;11.30;6.85;;;15.40;69.00;;;;;;2216387;56;22042;-84
2023/04/16 12:08:04;;;;;;;;;;;15.50;68.60;;;;;;2219723;56;21029;-84
2023/04/16 12:10:33;;;;;;;8.35;4.90;;;15.50;68.40;;;;;;2217090;56;20091;-85
2023/04/16 12:13:15;;;;;;;8.60;4.97;;;15.50;69.40;;;;;;2216140;56;21014;-85
2023/04/16 12:15:52;;;;;;;12.43;5.70;;;15.50;68.70;;;;;;2219796;56;21026;-84
2023/04/16 12:18:20;;;;;;;9.65;5.55;;;15.50;68.90;;;;;;2432632;56;22418;-83
2023/04/16 12:20:46;;;;;;;9.60;6.18;;;15.40;69.10;;;;;;2218908;56;21150;-84
2023/04/16 12:23:32;;;;;;;9.13;5.57;;;15.50;69.20;;;;;;2427846;56;21063;-84
2023/04/16 12:26:08;;;;;;;9.07;5.82;;;15.60;68.30;;;;;;2215518;56;21039;-84
2023/04/16 12:28:37;;;;;;;9.38;5.32;;;15.50;68.80;;;;;;2217275;56;21002;-84
2023/04/16 12:31:03;;;;;;;9.18;5.78;;;15.50;68.90;;;;;;2217120;56;21872;-82
2023/04/16 12:33:29;;;;;;;8.77;5.87;;;15.40;68.80;;;;;;2433365;56;20959;-85
2023/04/16 12:35:56;;;;;;;8.85;5.72;;;15.40;68.80;;;;;;2217367;56;20970;-84
2023/04/16 12:38:24;;;;;;;9.07;5.50;;;15.50;68.80;;;;;;2434165;56;20975;-86
2023/04/16 12:40:50;;;;;;;9.68;5.95;;;15.50;68.70;;;;;;2433522;56;21027;-87
2023/04/16 12:43:17;;;;;;;9.63;5.78;;;15.50;68.70;;;;;;2433992;56;20999;-86
2023/04/16 12:45:43;;;;;;;9.05;5.55;;;15.50;68.50;;;;;;2433809;56;21280;-87
2023/04/16 12:48:09;;;;;;;9.45;5.62;;;15.40;68.40;;;;;;2434175;56;21890;-87
2023/04/16 12:50:36;;;;;;;8.98;5.50;;;15.40;68.40;;;;;;2434182;56;20947;-87